sensor_id;sensor_type;location;lat;lon;timestamp;pressure;altitude;pressure_sealevel;temperature;humidity
33414;BME280;60055;41.884;12.534;2023-05-22T00:00:30;100484.78;;;17.74;74.37
33414;BME280;60055;41.884;12.534;2023-05-22T00:02:56;100494.94;;;17.82;74.15
33414;BME280;60055;41.884;12.534;2023-05-22T00:05:22;100489.41;;;17.85;74.51
33414;BME280;60055;41.884;12.534;2023-05-22T00:07:48;100486.00;;;17.83;74.29
33414;BME280;60055;41.884;12.534;2023-05-22T00:10:13;100492.28;;;17.82;74.49
33414;BME280;60055;41.884;12.534;2023-05-22T00:12:38;100487.91;;;17.94;74.41
33414;BME280;60055;41.884;12.534;2023-05-22T00:15:04;100488.44;;;17.86;74.32
33414;BME280;60055;41.884;12.534;2023-05-22T00:17:30;100489.72;;;17.93;74.33
33414;BME280;60055;41.884;12.534;2023-05-22T00:19:55;100484.28;;;17.82;74.70
33414;BME280;60055;41.884;12.534;2023-05-22T00:22:26;100481.81;;;17.92;74.69
33414;BME280;60055;41.884;12.534;2023-05-22T00:24:52;100476.38;;;17.93;74.51
33414;BME280;60055;41.884;12.534;2023-05-22T00:27:17;100468.34;;;17.93;74.46
33414;BME280;60055;41.884;12.534;2023-05-22T00:29:43;100475.81;;;17.88;74.51
33414;BME280;60055;41.884;12.534;2023-05-22T00:32:08;100471.97;;;17.92;74.48
33414;BME280;60055;41.884;12.534;2023-05-22T00:34:34;100475.00;;;17.88;74.06
33414;BME280;60055;41.884;12.534;2023-05-22T00:36:59;100479.06;;;17.80;74.29
33414;BME280;60055;41.884;12.534;2023-05-22T00:39:25;100474.75;;;17.78;74.61
33414;BME280;60055;41.884;12.534;2023-05-22T00:41:50;100474.53;;;17.68;75.40
33414;BME280;60055;41.884;12.534;2023-05-22T00:44:16;100464.63;;;17.70;75.30
33414;BME280;60055;41.884;12.534;2023-05-22T00:46:41;100465.03;;;17.64;75.25
33414;BME280;60055;41.884;12.534;2023-05-22T00:49:07;100464.72;;;17.69;75.10
33414;BME280;60055;41.884;12.534;2023-05-22T00:51:32;100473.13;;;17.50;75.85
33414;BME280;60055;41.884;12.534;2023-05-22T00:53:58;100471.78;;;17.57;75.28
33414;BME280;60055;41.884;12.534;2023-05-22T00:56:24;100469.00;;;17.59;75.37
33414;BME280;60055;41.884;12.534;2023-05-22T00:58:51;100473.91;;;17.65;74.76
33414;BME280;60055;41.884;12.534;2023-05-22T01:01:17;100482.34;;;17.59;75.48
33414;BME280;60055;41.884;12.534;2023-05-22T01:03:43;100477.22;;;17.56;75.75
33414;BME280;60055;41.884;12.534;2023-05-22T01:06:13;100480.94;;;17.53;75.53
33414;BME280;60055;41.884;12.534;2023-05-22T01:08:39;100480.94;;;17.53;75.68
33414;BME280;60055;41.884;12.534;2023-05-22T01:11:20;100475.84;;;17.63;74.90
33414;BME280;60055;41.884;12.534;2023-05-22T01:16:25;100471.06;;;17.28;76.58
33414;BME280;60055;41.884;12.534;2023-05-22T01:32:43;100476.16;;;17.71;75.33
33414;BME280;60055;41.884;12.534;2023-05-22T01:35:14;100476.69;;;17.76;74.93
33414;BME280;60055;41.884;12.534;2023-05-22T01:37:42;100480.53;;;17.84;74.79
33414;BME280;60055;41.884;12.534;2023-05-22T01:40:09;100485.34;;;17.92;74.37
33414;BME280;60055;41.884;12.534;2023-05-22T01:42:35;100480.84;;;17.93;74.61
33414;BME280;60055;41.884;12.534;2023-05-22T01:45:02;100483.66;;;17.91;74.02
33414;BME280;60055;41.884;12.534;2023-05-22T01:47:27;100486.72;;;17.85;73.98
33414;BME280;60055;41.884;12.534;2023-05-22T01:49:53;100482.97;;;17.75;74.63
33414;BME280;60055;41.884;12.534;2023-05-22T01:52:27;100487.38;;;17.76;74.69
33414;BME280;60055;41.884;12.534;2023-05-22T01:55:23;100489.72;;;17.80;74.11
33414;BME280;60055;41.884;12.534;2023-05-22T01:58:23;100479.16;;;17.79;74.25
33414;BME280;60055;41.884;12.534;2023-05-22T02:00:51;100486.09;;;17.81;74.19
33414;BME280;60055;41.884;12.534;2023-05-22T02:03:22;100483.84;;;17.75;74.04
33414;BME280;60055;41.884;12.534;2023-05-22T02:05:53;100483.41;;;17.69;74.48
33414;BME280;60055;41.884;12.534;2023-05-22T02:08:19;100482.34;;;17.71;74.86
33414;BME280;60055;41.884;12.534;2023-05-22T02:10:47;100475.19;;;17.72;74.32
33414;BME280;60055;41.884;12.534;2023-05-22T02:13:13;100471.56;;;17.73;74.33
33414;BME280;60055;41.884;12.534;2023-05-22T02:15:39;100477.75;;;17.73;74.30
33414;BME280;60055;41.884;12.534;2023-05-22T02:18:11;100480.75;;;17.69;74.13
33414;BME280;60055;41.884;12.534;2023-05-22T02:20:40;100477.75;;;17.61;74.68
33414;BME280;60055;41.884;12.534;2023-05-22T02:23:05;100471.56;;;17.73;74.09
33414;BME280;60055;41.884;12.534;2023-05-22T02:25:31;100473.03;;;17.64;74.28
33414;BME280;60055;41.884;12.534;2023-05-22T02:27:56;100475.06;;;17.61;74.75
33414;BME280;60055;41.884;12.534;2023-05-22T02:30:22;100480.75;;;17.56;74.95
33414;BME280;60055;41.884;12.534;2023-05-22T02:32:47;100479.88;;;17.56;74.98
33414;BME280;60055;41.884;12.534;2023-05-22T02:35:12;100470.94;;;17.57;75.26
33414;BME280;60055;41.884;12.534;2023-05-22T02:37:38;100469.03;;;17.45;75.47
33414;BME280;60055;41.884;12.534;2023-05-22T02:40:04;100468.31;;;17.43;75.47
33414;BME280;60055;41.884;12.534;2023-05-22T02:42:33;100472.78;;;17.42;75.49
33414;BME280;60055;41.884;12.534;2023-05-22T02:44:58;100471.94;;;17.42;75.48
33414;BME280;60055;41.884;12.534;2023-05-22T02:47:24;100465.34;;;17.47;75.78
33414;BME280;60055;41.884;12.534;2023-05-22T02:49:49;100469.81;;;17.47;75.58
33414;BME280;60055;41.884;12.534;2023-05-22T02:52:16;100472.28;;;17.50;75.64
33414;BME280;60055;41.884;12.534;2023-05-22T02:54:41;100473.59;;;17.57;75.18
33414;BME280;60055;41.884;12.534;2023-05-22T02:57:06;100469.03;;;17.45;75.53
33414;BME280;60055;41.884;12.534;2023-05-22T02:59:32;100466.16;;;17.48;75.43
33414;BME280;60055;41.884;12.534;2023-05-22T03:02:00;100471.63;;;17.46;75.16
33414;BME280;60055;41.884;12.534;2023-05-22T03:04:25;100470.03;;;17.44;75.87
33414;BME280;60055;41.884;12.534;2023-05-22T03:06:51;100471.84;;;17.43;75.48
33414;BME280;60055;41.884;12.534;2023-05-22T03:09:16;100484.53;;;17.40;76.16
33414;BME280;60055;41.884;12.534;2023-05-22T03:11:42;100480.06;;;17.40;76.05
33414;BME280;60055;41.884;12.534;2023-05-22T03:14:07;100482.38;;;17.32;75.89
33414;BME280;60055;41.884;12.534;2023-05-22T03:16:32;100481.50;;;17.31;76.00
33414;BME280;60055;41.884;12.534;2023-05-22T03:19:13;100481.94;;;17.38;75.81
33414;BME280;60055;41.884;12.534;2023-05-22T03:21:40;100479.47;;;17.22;76.69
33414;BME280;60055;41.884;12.534;2023-05-22T03:24:06;100488.66;;;17.31;76.22
33414;BME280;60055;41.884;12.534;2023-05-22T03:26:32;100486.66;;;17.34;76.18
33414;BME280;60055;41.884;12.534;2023-05-22T03:28:58;100479.19;;;17.27;76.40
33414;BME280;60055;41.884;12.534;2023-05-22T03:31:24;100482.59;;;17.29;75.96
33414;BME280;60055;41.884;12.534;2023-05-22T03:33:50;100486.97;;;17.30;75.76
33414;BME280;60055;41.884;12.534;2023-05-22T03:36:18;100482.34;;;17.19;76.07
33414;BME280;60055;41.884;12.534;2023-05-22T03:38:43;100478.53;;;17.23;75.85
33414;BME280;60055;41.884;12.534;2023-05-22T03:41:08;100481.94;;;17.25;75.83
33414;BME280;60055;41.884;12.534;2023-05-22T03:43:34;100483.66;;;17.26;75.57
33414;BME280;60055;41.884;12.534;2023-05-22T03:45:59;100486.53;;;17.23;76.13
33414;BME280;60055;41.884;12.534;2023-05-22T03:48:25;100483.09;;;17.21;76.12
33414;BME280;60055;41.884;12.534;2023-05-22T03:50:50;100483.06;;;17.09;76.38
33414;BME280;60055;41.884;12.534;2023-05-22T03:53:16;100476.00;;;17.08;76.65
33414;BME280;60055;41.884;12.534;2023-05-22T03:55:42;100479.47;;;17.22;76.30
33414;BME280;60055;41.884;12.534;2023-05-22T03:58:07;100484.66;;;17.11;76.47
33414;BME280;60055;41.884;12.534;2023-05-22T04:00:32;100487.03;;;17.16;76.40
33414;BME280;60055;41.884;12.534;2023-05-22T04:02:59;100486.69;;;17.08;76.73
33414;BME280;60055;41.884;12.534;2023-05-22T04:05:24;100491.06;;;17.09;76.70
33414;BME280;60055;41.884;12.534;2023-05-22T04:07:49;100491.31;;;17.18;76.43
33414;BME280;60055;41.884;12.534;2023-05-22T04:10:15;100494.72;;;17.20;75.92
33414;BME280;60055;41.884;12.534;2023-05-22T04:12:40;100499.59;;;17.14;76.54
33414;BME280;60055;41.884;12.534;2023-05-22T04:15:06;100495.34;;;17.11;76.55
33414;BME280;60055;41.884;12.534;2023-05-22T04:17:38;100492.91;;;17.21;76.12
33414;BME280;60055;41.884;12.534;2023-05-22T04:20:03;100497.94;;;17.25;75.76
33414;BME280;60055;41.884;12.534;2023-05-22T04:22:30;100496.88;;;17.28;75.65
33414;BME280;60055;41.884;12.534;2023-05-22T04:24:56;100493.78;;;17.21;76.31
33414;BME280;60055;41.884;12.534;2023-05-22T04:27:21;100493.03;;;17.19;76.54
33414;BME280;60055;41.884;12.534;2023-05-22T04:29:47;100502.63;;;17.22;76.53
33414;BME280;60055;41.884;12.534;2023-05-22T04:32:14;100508.41;;;17.28;75.93
33414;BME280;60055;41.884;12.534;2023-05-22T04:34:44;100505.88;;;17.27;75.91
33414;BME280;60055;41.884;12.534;2023-05-22T04:37:10;100507.47;;;17.29;76.15
33414;BME280;60055;41.884;12.534;2023-05-22T04:39:35;100506.50;;;17.30;75.86
33414;BME280;60055;41.884;12.534;2023-05-22T04:42:01;100505.88;;;17.40;75.73
33414;BME280;60055;41.884;12.534;2023-05-22T04:44:33;100510.13;;;17.29;76.41
33414;BME280;60055;41.884;12.534;2023-05-22T04:47:00;100506.53;;;17.43;75.95
33414;BME280;60055;41.884;12.534;2023-05-22T04:49:26;100512.09;;;17.53;75.30
33414;BME280;60055;41.884;12.534;2023-05-22T04:51:53;100511.94;;;17.56;74.90
33414;BME280;60055;41.884;12.534;2023-05-22T04:54:19;100517.47;;;17.65;74.51
33414;BME280;60055;41.884;12.534;2023-05-22T04:56:44;100512.91;;;17.67;74.25
33414;BME280;60055;41.884;12.534;2023-05-22T04:59:10;100521.66;;;17.82;73.99
33414;BME280;60055;41.884;12.534;2023-05-22T05:01:35;100515.38;;;17.83;73.92
33414;BME280;60055;41.884;12.534;2023-05-22T05:04:02;100516.00;;;17.74;73.95
33414;BME280;60055;41.884;12.534;2023-05-22T05:06:27;100518.78;;;17.85;73.89
33414;BME280;60055;41.884;12.534;2023-05-22T05:08:53;100522.09;;;17.76;73.54
33414;BME280;60055;41.884;12.534;2023-05-22T05:11:19;100528.50;;;17.73;74.04
33414;BME280;60055;41.884;12.534;2023-05-22T05:13:45;100533.13;;;17.84;73.60
33414;BME280;60055;41.884;12.534;2023-05-22T05:16:11;100536.31;;;18.02;73.28
33414;BME280;60055;41.884;12.534;2023-05-22T05:18:36;100538.66;;;18.06;73.47
33414;BME280;60055;41.884;12.534;2023-05-22T05:21:01;100525.38;;;18.43;72.79
33414;BME280;60055;41.884;12.534;2023-05-22T05:23:27;100540.44;;;18.69;71.26
33414;BME280;60055;41.884;12.534;2023-05-22T05:25:52;100546.84;;;18.79;70.68
33414;BME280;60055;41.884;12.534;2023-05-22T05:28:18;100547.19;;;18.62;71.44
33414;BME280;60055;41.884;12.534;2023-05-22T05:30:43;100537.19;;;18.89;69.90
33414;BME280;60055;41.884;12.534;2023-05-22T05:33:09;100545.00;;;19.03;69.18
33414;BME280;60055;41.884;12.534;2023-05-22T05:35:35;100558.84;;;18.97;69.24
33414;BME280;60055;41.884;12.534;2023-05-22T05:38:01;100543.81;;;19.31;69.07
33414;BME280;60055;41.884;12.534;2023-05-22T05:40:26;100541.25;;;19.42;67.63
33414;BME280;60055;41.884;12.534;2023-05-22T05:42:51;100543.50;;;19.70;67.26
33414;BME280;60055;41.884;12.534;2023-05-22T05:45:17;100532.25;;;20.00;65.86
33414;BME280;60055;41.884;12.534;2023-05-22T05:47:42;100527.19;;;20.30;64.38
33414;BME280;60055;41.884;12.534;2023-05-22T05:50:08;100527.19;;;20.64;63.13
33414;BME280;60055;41.884;12.534;2023-05-22T05:52:33;100532.28;;;20.56;62.64
33414;BME280;60055;41.884;12.534;2023-05-22T05:54:59;100540.53;;;20.86;62.34
33414;BME280;60055;41.884;12.534;2023-05-22T05:57:39;100547.31;;;21.23;61.19
33414;BME280;60055;41.884;12.534;2023-05-22T06:00:05;100542.97;;;21.43;60.33
33414;BME280;60055;41.884;12.534;2023-05-22T06:02:33;100550.25;;;21.20;59.88
33414;BME280;60055;41.884;12.534;2023-05-22T06:04:58;100558.44;;;21.51;59.85
33414;BME280;60055;41.884;12.534;2023-05-22T06:07:24;100556.22;;;21.56;59.55
33414;BME280;60055;41.884;12.534;2023-05-22T06:09:49;100572.50;;;21.75;58.44
33414;BME280;60055;41.884;12.534;2023-05-22T06:12:15;100568.53;;;22.11;57.61
33414;BME280;60055;41.884;12.534;2023-05-22T06:14:41;100573.25;;;22.49;56.28
33414;BME280;60055;41.884;12.534;2023-05-22T06:17:06;100565.63;;;22.74;55.47
33414;BME280;60055;41.884;12.534;2023-05-22T06:19:33;100563.66;;;22.86;54.51
33414;BME280;60055;41.884;12.534;2023-05-22T06:21:59;100576.84;;;22.99;54.36
33414;BME280;60055;41.884;12.534;2023-05-22T06:24:24;100576.69;;;22.81;54.68
33414;BME280;60055;41.884;12.534;2023-05-22T06:26:50;100574.31;;;22.97;54.10
33414;BME280;60055;41.884;12.534;2023-05-22T06:29:15;100571.78;;;23.05;53.87
33414;BME280;60055;41.884;12.534;2023-05-22T06:31:41;100578.19;;;23.33;53.05
33414;BME280;60055;41.884;12.534;2023-05-22T06:34:06;100576.28;;;23.54;52.66
33414;BME280;60055;41.884;12.534;2023-05-22T06:36:31;100579.09;;;23.53;52.75
33414;BME280;60055;41.884;12.534;2023-05-22T06:38:59;100577.34;;;23.32;52.67
33414;BME280;60055;41.884;12.534;2023-05-22T06:41:24;100578.88;;;23.06;52.55
33414;BME280;60055;41.884;12.534;2023-05-22T06:43:50;100566.66;;;23.02;53.14
33414;BME280;60055;41.884;12.534;2023-05-22T06:46:15;100558.75;;;23.20;52.46
33414;BME280;60055;41.884;12.534;2023-05-22T06:48:41;100555.13;;;23.50;51.57
33414;BME280;60055;41.884;12.534;2023-05-22T06:51:06;100559.81;;;23.57;51.48
33414;BME280;60055;41.884;12.534;2023-05-22T06:53:35;100557.09;;;23.96;50.70
33414;BME280;60055;41.884;12.534;2023-05-22T06:56:01;100549.25;;;24.12;49.63
33414;BME280;60055;41.884;12.534;2023-05-22T06:58:26;100554.44;;;24.42;49.61
33414;BME280;60055;41.884;12.534;2023-05-22T07:00:51;100550.88;;;24.41;47.72
33414;BME280;60055;41.884;12.534;2023-05-22T07:03:18;100546.88;;;24.82;47.48
33414;BME280;60055;41.884;12.534;2023-05-22T07:05:43;100542.84;;;25.14;47.19
33414;BME280;60055;41.884;12.534;2023-05-22T07:08:09;100546.97;;;25.53;45.73
33414;BME280;60055;41.884;12.534;2023-05-22T07:10:34;100538.28;;;25.50;45.46
33414;BME280;60055;41.884;12.534;2023-05-22T07:13:00;100539.47;;;25.47;44.89
33414;BME280;60055;41.884;12.534;2023-05-22T07:15:25;100544.81;;;25.57;44.34
33414;BME280;60055;41.884;12.534;2023-05-22T07:17:51;100545.16;;;25.26;44.52
33414;BME280;60055;41.884;12.534;2023-05-22T07:20:16;100550.88;;;25.23;45.34
33414;BME280;60055;41.884;12.534;2023-05-22T07:22:42;100553.13;;;25.28;45.10
33414;BME280;60055;41.884;12.534;2023-05-22T07:25:07;100554.38;;;25.33;44.64
33414;BME280;60055;41.884;12.534;2023-05-22T07:27:33;100557.75;;;25.35;45.24
33414;BME280;60055;41.884;12.534;2023-05-22T07:29:58;100552.44;;;25.43;44.48
33414;BME280;60055;41.884;12.534;2023-05-22T07:32:24;100562.19;;;25.72;45.06
33414;BME280;60055;41.884;12.534;2023-05-22T07:34:49;100563.31;;;25.87;44.26
33414;BME280;60055;41.884;12.534;2023-05-22T07:37:15;100560.03;;;25.58;43.44
33414;BME280;60055;41.884;12.534;2023-05-22T07:39:40;100561.94;;;25.30;43.14
33414;BME280;60055;41.884;12.534;2023-05-22T07:42:06;100564.47;;;25.31;43.56
33414;BME280;60055;41.884;12.534;2023-05-22T07:44:32;100563.94;;;25.28;43.21
33414;BME280;60055;41.884;12.534;2023-05-22T07:46:58;100564.97;;;25.45;43.10
33414;BME280;60055;41.884;12.534;2023-05-22T07:49:24;100566.59;;;25.55;42.73
33414;BME280;60055;41.884;12.534;2023-05-22T07:51:49;100566.13;;;25.77;41.82
33414;BME280;60055;41.884;12.534;2023-05-22T07:54:15;100571.69;;;25.76;41.15
33414;BME280;60055;41.884;12.534;2023-05-22T07:56:42;100569.16;;;26.00;40.11
33414;BME280;60055;41.884;12.534;2023-05-22T07:59:08;100562.06;;;25.11;41.85
33414;BME280;60055;41.884;12.534;2023-05-22T08:01:37;100560.19;;;25.74;40.17
33414;BME280;60055;41.884;12.534;2023-05-22T08:04:03;100555.38;;;26.11;41.74
33414;BME280;60055;41.884;12.534;2023-05-22T08:06:29;100563.50;;;25.50;41.45
33414;BME280;60055;41.884;12.534;2023-05-22T08:08:55;100564.16;;;26.31;41.18
33414;BME280;60055;41.884;12.534;2023-05-22T08:11:20;100561.44;;;26.57;39.72
33414;BME280;60055;41.884;12.534;2023-05-22T08:13:46;100564.63;;;26.52;40.88
33414;BME280;60055;41.884;12.534;2023-05-22T08:16:12;100558.53;;;26.84;41.22
33414;BME280;60055;41.884;12.534;2023-05-22T08:18:37;100557.25;;;27.04;40.93
33414;BME280;60055;41.884;12.534;2023-05-22T08:21:03;100564.38;;;27.05;39.88
33414;BME280;60055;41.884;12.534;2023-05-22T08:23:28;100556.38;;;26.96;40.73
33414;BME280;60055;41.884;12.534;2023-05-22T08:25:55;100569.41;;;26.92;39.54
33414;BME280;60055;41.884;12.534;2023-05-22T08:28:21;100561.53;;;26.81;40.13
33414;BME280;60055;41.884;12.534;2023-05-22T08:30:46;100559.44;;;26.67;40.31
33414;BME280;60055;41.884;12.534;2023-05-22T08:33:12;100569.47;;;25.54;40.79
33414;BME280;60055;41.884;12.534;2023-05-22T08:35:37;100569.66;;;25.42;42.80
33414;BME280;60055;41.884;12.534;2023-05-22T08:38:03;100563.66;;;25.66;43.35
33414;BME280;60055;41.884;12.534;2023-05-22T08:40:36;100565.69;;;25.19;43.02
33414;BME280;60055;41.884;12.534;2023-05-22T08:43:03;100559.09;;;24.86;43.70
33414;BME280;60055;41.884;12.534;2023-05-22T08:45:28;100568.56;;;25.35;43.83
33414;BME280;60055;41.884;12.534;2023-05-22T08:47:59;100560.88;;;24.96;42.04
33414;BME280;60055;41.884;12.534;2023-05-22T08:50:26;100552.78;;;24.59;43.32
33414;BME280;60055;41.884;12.534;2023-05-22T08:52:54;100559.78;;;24.52;43.29
33414;BME280;60055;41.884;12.534;2023-05-22T08:55:23;100559.81;;;24.79;43.11
33414;BME280;60055;41.884;12.534;2023-05-22T08:57:49;100558.41;;;25.02;42.39
33414;BME280;60055;41.884;12.534;2023-05-22T09:00:16;100563.34;;;24.89;42.00
33414;BME280;60055;41.884;12.534;2023-05-22T09:02:42;100566.28;;;24.59;43.04
33414;BME280;60055;41.884;12.534;2023-05-22T09:05:08;100563.84;;;24.65;42.86
33414;BME280;60055;41.884;12.534;2023-05-22T09:07:34;100569.03;;;24.86;41.60
33414;BME280;60055;41.884;12.534;2023-05-22T09:10:00;100568.31;;;25.11;41.19
33414;BME280;60055;41.884;12.534;2023-05-22T09:12:30;100569.41;;;25.36;42.14
33414;BME280;60055;41.884;12.534;2023-05-22T09:15:05;100570.50;;;25.25;41.29
33414;BME280;60055;41.884;12.534;2023-05-22T09:17:32;100574.50;;;25.04;41.89
33414;BME280;60055;41.884;12.534;2023-05-22T09:19:58;100571.41;;;25.16;41.61
33414;BME280;60055;41.884;12.534;2023-05-22T09:22:34;100568.31;;;25.11;40.62
33414;BME280;60055;41.884;12.534;2023-05-22T09:25:00;100566.69;;;25.01;40.32
33414;BME280;60055;41.884;12.534;2023-05-22T09:27:26;100567.72;;;25.17;41.68
33414;BME280;60055;41.884;12.534;2023-05-22T09:29:53;100569.09;;;25.04;40.58
33414;BME280;60055;41.884;12.534;2023-05-22T09:32:20;100563.84;;;25.20;39.26
33414;BME280;60055;41.884;12.534;2023-05-22T09:34:46;100573.66;;;25.21;40.43
33414;BME280;60055;41.884;12.534;2023-05-22T09:37:12;100568.19;;;25.30;38.92
33414;BME280;60055;41.884;12.534;2023-05-22T09:39:45;100565.22;;;25.51;38.25
33414;BME280;60055;41.884;12.534;2023-05-22T09:42:13;100572.03;;;25.46;39.77
33414;BME280;60055;41.884;12.534;2023-05-22T09:44:39;100561.19;;;25.55;40.27
33414;BME280;60055;41.884;12.534;2023-05-22T09:47:07;100557.22;;;25.50;40.00
33414;BME280;60055;41.884;12.534;2023-05-22T09:49:43;100554.22;;;25.53;40.41
33414;BME280;60055;41.884;12.534;2023-05-22T09:52:09;100554.31;;;25.61;40.74
33414;BME280;60055;41.884;12.534;2023-05-22T09:54:49;100553.84;;;25.48;40.53
33414;BME280;60055;41.884;12.534;2023-05-22T09:57:19;100553.91;;;25.56;40.58
33414;BME280;60055;41.884;12.534;2023-05-22T09:59:49;100554.84;;;25.64;40.32
33414;BME280;60055;41.884;12.534;2023-05-22T10:02:20;100554.72;;;25.38;40.68
33414;BME280;60055;41.884;12.534;2023-05-22T10:04:47;100556.50;;;25.12;41.02
33414;BME280;60055;41.884;12.534;2023-05-22T10:07:17;100551.66;;;25.33;40.52
33414;BME280;60055;41.884;12.534;2023-05-22T10:09:44;100543.25;;;25.36;40.32
33414;BME280;60055;41.884;12.534;2023-05-22T10:12:16;100551.66;;;25.69;40.06
33414;BME280;60055;41.884;12.534;2023-05-22T10:14:45;100543.00;;;25.48;40.71
33414;BME280;60055;41.884;12.534;2023-05-22T10:17:10;100552.97;;;25.47;41.10
33414;BME280;60055;41.884;12.534;2023-05-22T10:19:36;100548.44;;;25.48;41.14
33414;BME280;60055;41.884;12.534;2023-05-22T10:22:03;100544.59;;;25.68;41.00
33414;BME280;60055;41.884;12.534;2023-05-22T10:24:30;100550.00;;;25.68;41.64
33414;BME280;60055;41.884;12.534;2023-05-22T10:26:56;100543.56;;;25.33;41.68
33414;BME280;60055;41.884;12.534;2023-05-22T10:30:44;100542.38;;;25.18;41.36
33414;BME280;60055;41.884;12.534;2023-05-22T10:32:49;100537.75;;;25.28;41.92
33414;BME280;60055;41.884;12.534;2023-05-22T10:41:13;100528.06;;;25.79;41.06
33414;BME280;60055;41.884;12.534;2023-05-22T10:43:41;100524.34;;;25.98;40.92
33414;BME280;60055;41.884;12.534;2023-05-22T10:46:10;100526.72;;;26.01;41.37
33414;BME280;60055;41.884;12.534;2023-05-22T10:48:40;100532.28;;;25.73;42.00
33414;BME280;60055;41.884;12.534;2023-05-22T10:51:06;100525.53;;;25.77;41.72
33414;BME280;60055;41.884;12.534;2023-05-22T10:53:33;100527.16;;;25.35;42.22
33414;BME280;60055;41.884;12.534;2023-05-22T10:56:11;100531.56;;;25.36;42.79
33414;BME280;60055;41.884;12.534;2023-05-22T10:58:38;100527.38;;;25.41;43.05
33414;BME280;60055;41.884;12.534;2023-05-22T11:01:18;100524.31;;;25.19;43.93
33414;BME280;60055;41.884;12.534;2023-05-22T11:03:57;100517.19;;;24.73;45.38
33414;BME280;60055;41.884;12.534;2023-05-22T11:06:45;100515.03;;;24.49;46.73
33414;BME280;60055;41.884;12.534;2023-05-22T11:11:46;100526.03;;;24.38;46.80
33414;BME280;60055;41.884;12.534;2023-05-22T11:14:15;100517.19;;;24.46;45.46
33414;BME280;60055;41.884;12.534;2023-05-22T11:16:41;100514.88;;;24.51;46.42
33414;BME280;60055;41.884;12.534;2023-05-22T11:19:08;100514.56;;;24.63;45.99
33414;BME280;60055;41.884;12.534;2023-05-22T11:21:40;100513.94;;;24.69;46.29
33414;BME280;60055;41.884;12.534;2023-05-22T11:24:06;100512.44;;;24.84;45.55
33414;BME280;60055;41.884;12.534;2023-05-22T11:26:32;100508.94;;;24.74;45.89
33414;BME280;60055;41.884;12.534;2023-05-22T11:28:58;100508.78;;;24.76;45.58
33414;BME280;60055;41.884;12.534;2023-05-22T11:31:24;100500.50;;;24.87;45.37
33414;BME280;60055;41.884;12.534;2023-05-22T11:33:52;100497.81;;;24.87;45.21
33414;BME280;60055;41.884;12.534;2023-05-22T11:36:17;100516.09;;;24.93;45.29
33414;BME280;60055;41.884;12.534;2023-05-22T11:38:43;100505.91;;;24.87;45.51
33414;BME280;60055;41.884;12.534;2023-05-22T11:41:09;100508.16;;;24.91;45.58
33414;BME280;60055;41.884;12.534;2023-05-22T11:43:36;100508.03;;;25.11;45.00
33414;BME280;60055;41.884;12.534;2023-05-22T11:46:08;100506.69;;;25.32;43.97
33414;BME280;60055;41.884;12.534;2023-05-22T11:48:35;100500.06;;;25.45;43.77
33414;BME280;60055;41.884;12.534;2023-05-22T11:51:03;100494.50;;;25.64;43.78
33414;BME280;60055;41.884;12.534;2023-05-22T11:53:33;100499.50;;;25.76;43.32
33414;BME280;60055;41.884;12.534;2023-05-22T11:56:03;100497.91;;;25.30;43.10
33414;BME280;60055;41.884;12.534;2023-05-22T11:58:29;100502.53;;;25.56;43.31
33414;BME280;60055;41.884;12.534;2023-05-22T12:01:00;100499.47;;;25.68;43.01
33414;BME280;60055;41.884;12.534;2023-05-22T12:03:26;100490.44;;;25.85;42.45
33414;BME280;60055;41.884;12.534;2023-05-22T12:05:52;100493.25;;;26.02;42.50
33414;BME280;60055;41.884;12.534;2023-05-22T12:08:18;100491.41;;;26.02;41.86
33414;BME280;60055;41.884;12.534;2023-05-22T12:10:48;100479.91;;;25.82;42.39
33414;BME280;60055;41.884;12.534;2023-05-22T12:13:14;100481.63;;;25.83;42.66
33414;BME280;60055;41.884;12.534;2023-05-22T12:15:39;100478.69;;;26.03;42.69
33414;BME280;60055;41.884;12.534;2023-05-22T12:18:08;100480.41;;;25.78;42.21
33414;BME280;60055;41.884;12.534;2023-05-22T12:20:34;100474.09;;;25.69;42.28
33414;BME280;60055;41.884;12.534;2023-05-22T12:22:59;100472.97;;;25.54;43.37
33414;BME280;60055;41.884;12.534;2023-05-22T12:25:34;100479.78;;;25.58;43.54
33414;BME280;60055;41.884;12.534;2023-05-22T12:28:01;100477.41;;;25.63;43.21
33414;BME280;60055;41.884;12.534;2023-05-22T12:30:26;100473.28;;;25.51;43.99
33414;BME280;60055;41.884;12.534;2023-05-22T12:32:52;100478.59;;;25.43;44.03
33414;BME280;60055;41.884;12.534;2023-05-22T12:35:17;100475.34;;;25.22;44.59
33414;BME280;60055;41.884;12.534;2023-05-22T12:37:50;100472.19;;;25.26;44.94
33414;BME280;60055;41.884;12.534;2023-05-22T12:40:15;100473.72;;;25.29;44.57
33414;BME280;60055;41.884;12.534;2023-05-22T12:42:41;100470.94;;;25.56;43.83
33414;BME280;60055;41.884;12.534;2023-05-22T12:45:07;100468.84;;;25.68;43.75
33414;BME280;60055;41.884;12.534;2023-05-22T12:47:32;100462.38;;;25.86;43.12
33414;BME280;60055;41.884;12.534;2023-05-22T12:49:58;100471.59;;;25.76;43.28
33414;BME280;60055;41.884;12.534;2023-05-22T12:52:23;100472.19;;;25.62;43.71
33414;BME280;60055;41.884;12.534;2023-05-22T12:54:49;100467.31;;;25.48;43.85
33414;BME280;60055;41.884;12.534;2023-05-22T12:57:14;100468.63;;;25.61;44.09
33414;BME280;60055;41.884;12.534;2023-05-22T12:59:41;100476.66;;;25.53;43.68
33414;BME280;60055;41.884;12.534;2023-05-22T13:02:08;100480.06;;;25.37;43.60
33414;BME280;60055;41.884;12.534;2023-05-22T13:04:34;100470.03;;;25.12;43.96